createdAt,value
2022-12-13T00:00:23.264Z,-8.30719
2022-12-13T00:01:30.950Z,-8.30719
2022-12-13T00:02:40.672Z,-8.287048
2022-12-13T00:03:49.487Z,-8.337402
2022-12-13T00:04:58.056Z,-8.357544
2022-12-13T00:06:07.748Z,-8.337402
2022-12-13T00:07:16.416Z,-8.337402
2022-12-13T00:08:25.150Z,-8.387756
2022-12-13T00:09:33.800Z,-8.417969
2022-12-13T00:10:42.474Z,-8.42804
2022-12-13T00:11:51.183Z,-8.367615
2022-12-13T00:13:00.833Z,-8.367615
2022-12-13T00:14:09.522Z,-8.397827
2022-12-13T00:15:19.272Z,-8.417969
2022-12-13T00:16:27.980Z,-8.42804
2022-12-13T00:17:37.647Z,-8.458252
2022-12-13T00:18:46.334Z,-8.498535
2022-12-13T00:19:54.038Z,-8.538818
2022-12-13T00:21:02.722Z,-8.599243
2022-12-13T00:22:10.394Z,-8.639526
2022-12-13T00:23:19.103Z,-8.649597
2022-12-13T00:24:28.813Z,-8.669739
2022-12-13T00:25:38.507Z,-8.649597
2022-12-13T00:26:48.191Z,-8.649597
2022-12-13T00:27:56.930Z,-8.67981
2022-12-13T00:29:05.568Z,-8.699951
2022-12-13T00:30:15.262Z,-8.699951
2022-12-13T00:32:34.630Z,-8.639526
2022-12-13T00:33:44.298Z,-8.609314
2022-12-13T00:34:52.984Z,-8.599243
2022-12-13T00:36:02.652Z,-8.599243
2022-12-13T00:37:11.352Z,-8.599243
2022-12-13T00:38:20.051Z,-8.599243
2022-12-13T00:39:29.735Z,-8.619385
2022-12-13T00:40:38.406Z,-8.599243
2022-12-13T00:41:48.087Z,-8.609314
2022-12-13T00:42:57.782Z,-8.599243
2022-12-13T00:44:07.532Z,-8.609314
2022-12-13T00:45:17.492Z,-8.609314
2022-12-13T00:46:27.098Z,-8.609314
2022-12-13T00:47:34.635Z,-8.619385
2022-12-13T00:48:44.331Z,-8.67981
2022-12-13T00:49:53.031Z,-8.699951
2022-12-13T00:51:01.721Z,-8.699951
2022-12-13T00:52:11.415Z,-8.699951
2022-12-13T00:53:19.075Z,-8.669739
2022-12-13T00:54:28.745Z,-8.699951
2022-12-13T00:55:37.446Z,-8.67981
2022-12-13T00:56:45.128Z,-8.699951
2022-12-13T00:57:54.838Z,-8.67981
2022-12-13T00:59:02.524Z,-8.669739
2022-12-13T01:00:12.241Z,-8.669739
2022-12-13T01:01:21.970Z,-8.699951
2022-12-13T01:02:30.606Z,-8.730164
2022-12-13T01:03:40.323Z,-8.790588
2022-12-13T01:04:48.973Z,-8.820801
2022-12-13T01:06:14.649Z,-8.851013
2022-12-13T01:07:08.336Z,-8.830872
2022-12-13T01:08:18.039Z,-8.861084
2022-12-13T01:09:26.680Z,-8.830872
2022-12-13T01:10:36.356Z,-8.861084
2022-12-13T01:11:44.041Z,-8.881226
2022-12-13T01:12:53.743Z,-8.901367
2022-12-13T01:14:03.443Z,-8.921509
2022-12-13T01:15:12.343Z,-8.93158
2022-12-13T01:16:21.897Z,-8.921509
2022-12-13T01:17:31.497Z,-8.901367
2022-12-13T01:18:40.192Z,-8.881226
2022-12-13T01:19:49.872Z,-8.881226
2022-12-13T01:20:58.543Z,-8.93158
2022-12-13T01:22:08.235Z,-8.961792
2022-12-13T01:23:17.907Z,-8.971863
2022-12-13T01:24:26.593Z,-8.971863
2022-12-13T01:25:36.277Z,-9.002075
2022-12-13T01:26:43.987Z,-9.032288
2022-12-13T01:27:53.715Z,-9.032288
2022-12-13T01:29:04.396Z,-9.022217
2022-12-13T01:30:12.090Z,-9.002075
2022-12-13T01:31:20.953Z,-8.971863
2022-12-13T01:32:29.595Z,-8.992004
2022-12-13T01:33:38.262Z,-9.022217
2022-12-13T01:34:47.970Z,-9.042358
2022-12-13T01:35:56.655Z,-9.072571
2022-12-13T01:37:06.348Z,-9.112854
2022-12-13T01:38:15.917Z,-9.122925
2022-12-13T01:39:26.416Z,-9.18335
2022-12-13T01:40:38.728Z,-9.223633
2022-12-13T01:41:46.080Z,-9.243774
2022-12-13T01:42:54.765Z,-9.243774
2022-12-13T01:44:05.454Z,-9.253845
2022-12-13T01:45:15.465Z,-9.284058
2022-12-13T01:46:24.955Z,-9.294128
2022-12-13T01:47:32.646Z,-9.31427
2022-12-13T01:48:41.322Z,-9.334412
2022-12-13T01:49:51.071Z,-9.334412
2022-12-13T01:50:59.736Z,-9.334412
2022-12-13T01:52:09.486Z,-9.384766
2022-12-13T01:53:18.188Z,-9.364624
2022-12-13T01:54:25.840Z,-9.384766
2022-12-13T01:55:41.345Z,-9.354553
2022-12-13T01:56:46.172Z,-9.324341
2022-12-13T01:57:55.839Z,-9.294128
2022-12-13T01:59:05.577Z,-9.253845
2022-12-13T02:00:13.252Z,-9.213562
2022-12-13T02:01:22.983Z,-9.173279
2022-12-13T02:02:31.792Z,-9.173279
2022-12-13T02:03:40.482Z,-9.173279
2022-12-13T02:04:49.243Z,-9.18335
2022-12-13T02:05:56.898Z,-9.213562
2022-12-13T02:07:06.550Z,-9.284058
2022-12-13T02:08:17.258Z,-9.284058
2022-12-13T02:09:26.914Z,-9.284058
2022-12-13T02:10:36.608Z,-9.243774
2022-12-13T02:11:45.270Z,-9.253845
2022-12-13T02:12:52.938Z,-9.253845
2022-12-13T02:14:02.740Z,-9.31427
2022-12-13T02:15:10.411Z,-9.294128
2022-12-13T02:16:22.346Z,-9.31427
2022-12-13T02:17:28.761Z,-9.324341
2022-12-13T02:18:38.429Z,-9.354553
2022-12-13T02:19:48.113Z,-9.334412
2022-12-13T02:20:57.770Z,-9.324341
2022-12-13T02:22:05.462Z,-9.31427
2022-12-13T02:23:15.125Z,-9.334412
2022-12-13T02:24:24.782Z,-9.334412
2022-12-13T02:25:33.473Z,-9.384766
2022-12-13T02:26:43.172Z,-9.394836
2022-12-13T02:27:50.992Z,-9.394836
2022-12-13T02:29:00.627Z,-9.384766
2022-12-13T02:30:10.282Z,-9.394836
2022-12-13T02:31:18.100Z,-9.425049
2022-12-13T02:32:27.690Z,-9.394836
2022-12-13T02:33:35.424Z,-9.354553
2022-12-13T02:34:44.144Z,-9.334412
2022-12-13T02:35:53.846Z,-9.324341
2022-12-13T02:37:02.508Z,-9.294128
2022-12-13T02:38:12.170Z,-9.284058
2022-12-13T02:39:30.058Z,-9.294128
2022-12-13T02:40:31.495Z,-9.31427
2022-12-13T02:41:41.219Z,-9.324341
2022-12-13T02:42:49.911Z,-9.354553
2022-12-13T02:44:00.909Z,-9.324341
2022-12-13T02:45:09.249Z,-9.284058
2022-12-13T02:46:19.933Z,-9.223633
2022-12-13T02:47:29.563Z,-9.203491
2022-12-13T02:48:38.239Z,-9.253845
2022-12-13T02:49:46.921Z,-9.31427
2022-12-13T02:50:56.651Z,-9.354553
2022-12-13T02:52:05.340Z,-9.414978
2022-12-13T02:53:15.992Z,-9.455261
2022-12-13T02:54:25.664Z,-9.505615
2022-12-13T02:55:33.333Z,-9.525757
2022-12-13T02:56:43.032Z,-9.535828
2022-12-13T02:57:51.704Z,-9.545898
2022-12-13T02:59:00.387Z,-9.535828
2022-12-13T03:00:10.074Z,-9.525757
2022-12-13T03:01:28.272Z,-9.505615
2022-12-13T03:02:30.760Z,-9.475403
2022-12-13T03:03:39.103Z,-9.394836
2022-12-13T03:04:47.789Z,-9.324341
2022-12-13T03:05:57.462Z,-9.294128
2022-12-13T03:07:07.142Z,-9.294128
2022-12-13T03:08:15.847Z,-9.31427
2022-12-13T03:09:25.488Z,-9.334412
2022-12-13T03:10:33.149Z,-9.334412
2022-12-13T03:11:41.960Z,-9.364624
2022-12-13T03:12:51.627Z,-9.414978
2022-12-13T03:14:00.343Z,-9.455261
2022-12-13T03:15:10.021Z,-9.475403
2022-12-13T03:16:22.427Z,-9.505615
2022-12-13T03:17:26.330Z,-9.495544
2022-12-13T03:18:36.025Z,-9.535828
2022-12-13T03:19:43.740Z,-9.56604
2022-12-13T03:20:52.396Z,-9.606323
2022-12-13T03:22:02.076Z,-9.656677
2022-12-13T03:23:10.743Z,-9.68689
2022-12-13T03:24:20.460Z,-9.717102
2022-12-13T03:25:30.633Z,-9.727173
2022-12-13T03:26:38.785Z,-9.777527
2022-12-13T03:27:48.462Z,-9.747314
2022-12-13T03:28:59.136Z,-9.656677
2022-12-13T03:30:07.805Z,-9.606323
2022-12-13T03:31:17.506Z,-9.535828
2022-12-13T03:32:26.195Z,-9.525757
2022-12-13T03:33:35.922Z,-9.495544
2022-12-13T03:34:43.907Z,-9.505615
2022-12-13T03:35:52.232Z,-9.525757
2022-12-13T03:37:01.934Z,-9.505615
2022-12-13T03:38:09.676Z,-9.505615
2022-12-13T03:39:20.393Z,-9.505615
2022-12-13T03:40:29.172Z,-9.495544
2022-12-13T03:41:37.765Z,-9.495544
2022-12-13T03:42:47.500Z,-9.495544
2022-12-13T03:43:56.166Z,-9.545898
2022-12-13T03:45:05.833Z,-9.596252
2022-12-13T03:46:14.634Z,-9.626465
2022-12-13T03:47:23.297Z,-9.676819
2022-12-13T03:48:33.000Z,-9.707031
2022-12-13T03:49:40.679Z,-9.717102
2022-12-13T03:50:51.394Z,-9.717102
2022-12-13T03:52:00.073Z,-9.747314
2022-12-13T03:53:07.761Z,-9.777527
2022-12-13T03:54:18.450Z,-9.787598
2022-12-13T03:55:28.145Z,-9.81781
2022-12-13T03:56:36.883Z,-9.787598
2022-12-13T03:57:46.572Z,-9.807739
2022-12-13T03:58:56.278Z,-9.81781
2022-12-13T04:00:05.023Z,-9.837952
2022-12-13T04:01:14.723Z,-9.868164
2022-12-13T04:02:30.645Z,-9.888306
2022-12-13T04:03:33.106Z,-9.93866
2022-12-13T04:04:42.788Z,-9.928589
2022-12-13T04:05:51.490Z,-9.93866
2022-12-13T04:07:01.191Z,-9.888306
2022-12-13T04:08:12.564Z,-9.868164
2022-12-13T04:09:20.540Z,-9.898376
2022-12-13T04:10:30.238Z,-9.918518
2022-12-13T04:11:42.440Z,-9.928589
2022-12-13T04:12:48.813Z,-9.93866
2022-12-13T04:13:59.401Z,-9.93866
2022-12-13T04:15:08.109Z,-9.93866
2022-12-13T04:16:17.876Z,-9.958801
2022-12-13T04:17:26.578Z,-9.93866
2022-12-13T04:18:35.270Z,-9.93866
2022-12-13T04:19:45.001Z,-9.958801
2022-12-13T04:20:54.721Z,-9.989014
2022-12-13T04:22:04.416Z,-10.01922
2022-12-13T04:23:13.140Z,-10.07965
2022-12-13T04:24:21.931Z,-10.13
2022-12-13T04:25:32.596Z,-10.17028
2022-12-13T04:26:41.352Z,-10.2005
2022-12-13T04:27:51.127Z,-10.26092
2022-12-13T04:29:00.841Z,-10.25085
2022-12-13T04:30:08.607Z,-10.25085
2022-12-13T04:31:18.311Z,-10.25085
2022-12-13T04:32:27.489Z,-10.23071
2022-12-13T04:33:35.670Z,-10.22064
2022-12-13T04:34:45.529Z,-10.15014
2022-12-13T04:35:56.180Z,-10.14007
2022-12-13T04:37:05.901Z,-10.14007
2022-12-13T04:38:15.575Z,-10.14007
2022-12-13T04:39:24.307Z,-10.13
2022-12-13T04:40:34.979Z,-10.10986
2022-12-13T04:41:43.713Z,-10.07965
2022-12-13T04:42:53.901Z,-10.09979
2022-12-13T04:44:01.187Z,-10.07965
2022-12-13T04:45:10.881Z,-10.09979
2022-12-13T04:46:20.784Z,-10.10986
2022-12-13T04:47:30.556Z,-10.06958
2022-12-13T04:48:39.330Z,-9.989014
2022-12-13T04:49:49.106Z,-9.989014
2022-12-13T04:50:58.877Z,-10.01922
2022-12-13T04:52:08.627Z,-10.01922
2022-12-13T04:53:19.511Z,-10.01922
2022-12-13T04:54:27.343Z,-10.03936
2022-12-13T04:55:37.008Z,-10.01922
2022-12-13T04:56:46.704Z,-9.989014
2022-12-13T04:57:55.461Z,-9.958801
2022-12-13T04:59:05.219Z,-9.958801
2022-12-13T05:00:15.090Z,-9.989014
2022-12-13T05:01:24.941Z,-10.01922
2022-12-13T05:02:34.626Z,-10.04943
2022-12-13T05:03:43.401Z,-10.09979
2022-12-13T05:04:53.592Z,-10.14007
2022-12-13T05:06:03.011Z,-10.17028
2022-12-13T05:07:13.738Z,-10.10986
2022-12-13T05:08:23.519Z,-10.07965
2022-12-13T05:09:32.259Z,-10.04943
2022-12-13T05:10:42.048Z,-9.999084
2022-12-13T05:11:51.762Z,-9.968872
2022-12-13T05:13:02.411Z,-9.93866
2022-12-13T05:14:12.154Z,-9.928589
2022-12-13T05:15:22.923Z,-9.898376
2022-12-13T05:16:31.760Z,-9.858093
2022-12-13T05:17:41.375Z,-9.837952
2022-12-13T05:18:51.186Z,-9.837952
2022-12-13T05:19:58.941Z,-9.858093
2022-12-13T05:21:08.742Z,-9.898376
2022-12-13T05:22:20.174Z,-9.898376
2022-12-13T05:23:25.164Z,-9.918518
2022-12-13T05:24:34.847Z,-9.918518
2022-12-13T05:25:44.515Z,-9.898376
2022-12-13T05:26:54.212Z,-9.918518
2022-12-13T05:28:08.683Z,-9.918518
2022-12-13T05:29:15.549Z,-9.93866
2022-12-13T05:30:25.261Z,-9.928589
2022-12-13T05:31:34.019Z,-9.928589
2022-12-13T05:32:44.831Z,-9.93866
2022-12-13T05:33:52.310Z,-9.93866
2022-12-13T05:35:01.956Z,-9.958801
2022-12-13T05:36:11.625Z,-9.989014
2022-12-13T05:37:19.297Z,-9.989014
2022-12-13T05:38:28.973Z,-9.989014
2022-12-13T05:39:37.648Z,-9.989014
2022-12-13T05:40:47.331Z,-9.968872
2022-12-13T05:42:01.246Z,-9.968872
2022-12-13T05:43:21.000Z,-9.989014
2022-12-13T05:44:17.337Z,-9.989014
2022-12-13T05:45:27.009Z,-9.999084
2022-12-13T05:46:41.364Z,-9.999084
2022-12-13T05:47:46.343Z,-9.999084
2022-12-13T05:48:56.012Z,-9.999084
2022-12-13T05:50:04.699Z,-9.968872
2022-12-13T05:51:14.377Z,-9.968872
2022-12-13T05:52:30.707Z,-9.968872
2022-12-13T05:53:32.722Z,-9.968872
2022-12-13T05:54:42.902Z,-9.958801
2022-12-13T05:55:52.079Z,-9.989014
2022-12-13T05:57:01.741Z,-9.989014
2022-12-13T05:58:13.064Z,-9.999084
2022-12-13T05:59:21.084Z,-9.989014
2022-12-13T06:00:31.157Z,-9.989014
2022-12-13T06:01:43.548Z,-9.999084
2022-12-13T06:02:48.113Z,-9.989014
2022-12-13T06:03:58.786Z,-9.999084
2022-12-13T06:05:07.383Z,-9.968872
2022-12-13T06:06:17.037Z,-9.928589
2022-12-13T06:07:26.727Z,-9.858093
2022-12-13T06:08:35.454Z,-9.81781
2022-12-13T06:09:45.072Z,-9.787598
2022-12-13T06:10:54.733Z,-9.807739
2022-12-13T06:12:04.375Z,-9.837952
2022-12-13T06:13:20.907Z,-9.898376
2022-12-13T06:14:25.724Z,-9.958801
2022-12-13T06:15:35.347Z,-10.03936
2022-12-13T06:16:46.026Z,-10.07965
2022-12-13T06:17:53.663Z,-10.06958
2022-12-13T06:19:04.715Z,-9.999084
2022-12-13T06:20:23.079Z,-9.968872
2022-12-13T06:21:22.695Z,-9.968872
2022-12-13T06:22:32.398Z,-9.999084
2022-12-13T06:23:41.069Z,-10.03936
2022-12-13T06:24:50.885Z,-10.03936
2022-12-13T06:25:59.623Z,-10.06958
2022-12-13T06:27:09.386Z,-10.04943
2022-12-13T06:28:19.048Z,-10.03936
2022-12-13T06:29:27.781Z,-10.04943
2022-12-13T06:30:37.465Z,-10.03936
2022-12-13T06:31:47.092Z,-9.928589
2022-12-13T06:32:56.762Z,-9.505615
2022-12-13T06:34:14.120Z,-9.102783
2022-12-13T06:35:27.640Z,-8.881226
2022-12-13T06:36:26.724Z,-8.93158
2022-12-13T06:37:36.409Z,-9.0625
2022-12-13T06:38:44.096Z,-9.213562
2022-12-13T06:39:52.788Z,-9.334412
2022-12-13T06:41:02.483Z,-9.425049
2022-12-13T06:42:11.198Z,-9.495544
2022-12-13T06:43:20.838Z,-9.545898
2022-12-13T06:44:29.515Z,-9.596252
2022-12-13T06:45:37.184Z,-9.656677
2022-12-13T06:46:46.829Z,-9.707031
2022-12-13T06:47:55.488Z,-9.747314
2022-12-13T06:49:04.161Z,-9.777527
2022-12-13T06:50:13.881Z,-9.807739
2022-12-13T06:51:23.296Z,-9.868164
2022-12-13T06:52:33.176Z,-9.958801
2022-12-13T06:53:41.848Z,-9.999084
2022-12-13T06:54:49.541Z,-9.989014
2022-12-13T06:56:00.171Z,-9.999084
2022-12-13T06:57:07.829Z,-10.01922
2022-12-13T06:58:17.576Z,-10.01922
2022-12-13T06:59:27.254Z,-10.01922
2022-12-13T07:00:42.637Z,-10.04943
2022-12-13T07:01:50.550Z,-10.07965
2022-12-13T07:02:58.355Z,-10.14007
2022-12-13T07:04:29.149Z,-10.17028
2022-12-13T07:05:17.618Z,-10.09979
2022-12-13T07:06:27.271Z,-10.06958
2022-12-13T07:07:36.933Z,-10.01922
2022-12-13T07:08:46.588Z,-10.03936
2022-12-13T07:09:54.257Z,-9.999084
2022-12-13T07:11:03.926Z,-9.999084
2022-12-13T07:12:13.595Z,-10.06958
2022-12-13T07:13:23.253Z,-9.999084
2022-12-13T07:14:32.939Z,-9.958801
2022-12-13T07:15:42.601Z,-9.81781
2022-12-13T07:16:53.122Z,-9.717102
2022-12-13T07:18:02.894Z,-9.626465
2022-12-13T07:19:13.564Z,-9.495544
2022-12-13T07:20:21.178Z,-9.394836
2022-12-13T07:21:29.854Z,-9.31427
2022-12-13T07:22:41.512Z,-9.173279
2022-12-13T07:23:48.190Z,-9.002075
2022-12-13T07:24:57.818Z,-8.820801
2022-12-13T07:26:07.468Z,-8.599243
2022-12-13T07:27:17.149Z,-8.458252
2022-12-13T07:28:26.876Z,-8.357544
2022-12-13T07:29:36.534Z,-8.18634
2022-12-13T07:30:45.193Z,-8.005066
2022-12-13T07:31:53.854Z,-7.813721
2022-12-13T07:33:03.513Z,-7.713013
2022-12-13T07:34:15.541Z,-7.713013
2022-12-13T07:35:21.847Z,-7.531738
2022-12-13T07:36:29.539Z,-7.400818
2022-12-13T07:37:38.184Z,-7.279968
2022-12-13T07:38:46.851Z,-7.138977
2022-12-13T07:39:59.505Z,-7.038269
2022-12-13T07:41:05.238Z,-6.897278
2022-12-13T07:42:14.834Z,-6.746216
2022-12-13T07:43:23.574Z,-6.645508
2022-12-13T07:44:33.182Z,-6.625366
2022-12-13T07:45:41.865Z,-6.575012
2022-12-13T07:46:50.577Z,-6.393738
2022-12-13T07:48:00.203Z,-6.202393
2022-12-13T07:49:09.870Z,-5.960693
2022-12-13T07:50:24.482Z,-5.718994
2022-12-13T07:51:28.181Z,-5.608215
2022-12-13T07:52:36.854Z,-5.447083
2022-12-13T07:53:46.553Z,-5.215454
2022-12-13T07:54:55.221Z,-5.215454
2022-12-13T07:56:03.874Z,-5.205383
2022-12-13T07:57:14.605Z,-5.134888
2022-12-13T07:58:23.268Z,-5.03418
2022-12-13T07:59:32.987Z,-5.003967
2022-12-13T08:00:46.296Z,-4.963684
2022-12-13T08:01:52.418Z,-4.852905
2022-12-13T08:03:02.990Z,-4.641418
2022-12-13T08:04:11.659Z,-4.480286
2022-12-13T08:05:26.281Z,-4.460144
2022-12-13T08:06:29.956Z,-4.460144
2022-12-13T08:07:37.601Z,-4.460144
2022-12-13T08:08:47.290Z,-4.379578
2022-12-13T08:09:56.942Z,-4.268799
2022-12-13T08:11:05.601Z,-4.067383
2022-12-13T08:12:15.259Z,-4.0271
2022-12-13T08:13:24.946Z,-4.017029
2022-12-13T08:14:34.634Z,-3.976746
2022-12-13T08:15:43.347Z,-3.956604
2022-12-13T08:16:51.958Z,-3.886108
2022-12-13T08:18:01.613Z,-3.77533
2022-12-13T08:19:11.269Z,-3.735046
2022-12-13T08:20:21.804Z,-3.674622
2022-12-13T08:21:53.163Z,-3.553772
2022-12-13T08:22:39.205Z,-3.40271
2022-12-13T08:23:49.834Z,-3.312073
2022-12-13T08:24:59.532Z,-3.231506
2022-12-13T08:26:08.191Z,-3.191223
2022-12-13T08:27:17.886Z,-3.120728
2022-12-13T08:28:27.558Z,-3.070374
2022-12-13T08:29:36.472Z,-3.130798
2022-12-13T08:30:45.907Z,-3.161011
2022-12-13T08:31:53.624Z,-3.302002
2022-12-13T08:33:04.670Z,-3.251648
2022-12-13T08:34:12.957Z,-3.201294
2022-12-13T08:35:20.615Z,-3.171082
2022-12-13T08:36:30.287Z,-3.251648
2022-12-13T08:37:39.936Z,-3.302002
2022-12-13T08:38:48.603Z,-3.251648
2022-12-13T08:39:58.285Z,-3.221436
2022-12-13T08:41:06.943Z,-3.15094
2022-12-13T08:42:18.658Z,-3.070374
2022-12-13T08:43:25.499Z,-3.060303
2022-12-13T08:44:32.965Z,-2.969666
2022-12-13T08:45:42.618Z,-3.009949
2022-12-13T08:46:51.353Z,-3.221436
2022-12-13T08:47:59.947Z,-3.120728
2022-12-13T08:49:09.661Z,-2.969666
2022-12-13T08:50:17.293Z,-2.889099
2022-12-13T08:51:27.312Z,-2.828674
2022-12-13T08:52:39.121Z,-2.707825
2022-12-13T08:53:45.218Z,-2.496338
2022-12-13T08:54:55.948Z,-2.405701
2022-12-13T08:56:05.607Z,-2.264709
2022-12-13T08:57:13.263Z,-2.254639
2022-12-13T08:58:22.994Z,-2.214355
2022-12-13T08:59:31.670Z,-2.365417
2022-12-13T09:00:40.351Z,-2.597046
2022-12-13T09:01:53.701Z,-2.597046
2022-12-13T09:03:00.645Z,-2.496338
2022-12-13T09:04:10.323Z,-2.445984
2022-12-13T09:05:32.779Z,-2.39563
2022-12-13T09:06:31.617Z,-2.315063
2022-12-13T09:07:41.353Z,-2.415771
2022-12-13T09:08:51.659Z,-2.476196
2022-12-13T09:09:57.576Z,-2.345276
2022-12-13T09:11:10.735Z,-2.254639
2022-12-13T09:12:29.560Z,-2.284851
2022-12-13T09:13:32.125Z,-2.02301
2022-12-13T09:14:45.132Z,-1.841736
2022-12-13T09:15:49.859Z,-1.761169
2022-12-13T09:17:02.675Z,-1.660461
2022-12-13T09:18:15.438Z,-1.579895
2022-12-13T09:19:24.779Z,-1.247559
2022-12-13T09:20:31.508Z,-1.066284
2022-12-13T09:21:43.034Z,-1.005859
2022-12-13T09:22:51.728Z,-0.895081
2022-12-13T09:24:02.261Z,-0.804443
2022-12-13T09:25:14.740Z,-0.744019
2022-12-13T09:26:25.299Z,-0.88501
2022-12-13T09:27:39.782Z,-0.935364
2022-12-13T09:28:41.954Z,-0.864868
2022-12-13T09:29:51.627Z,-0.824585
2022-12-13T09:31:00.279Z,-0.824585
2022-12-13T09:32:09.984Z,-0.834656
2022-12-13T09:33:29.749Z,-0.965576
2022-12-13T09:34:28.366Z,-0.965576
2022-12-13T09:35:38.010Z,-0.925293
2022-12-13T09:36:46.707Z,-0.854797
2022-12-13T09:37:57.361Z,-0.88501
2022-12-13T09:39:06.032Z,-1.247559
2022-12-13T09:40:25.581Z,-1.469116
2022-12-13T09:41:28.360Z,-1.579895
2022-12-13T09:42:36.978Z,-1.408691
2022-12-13T09:43:46.883Z,-1.2677
2022-12-13T09:45:02.379Z,-1.2677
2022-12-13T09:46:13.153Z,-1.146851
2022-12-13T09:47:22.956Z,-1.13678
2022-12-13T09:48:27.393Z,-1.106567
2022-12-13T09:49:36.914Z,-1.116638
2022-12-13T09:50:57.853Z,-1.036072
2022-12-13T09:52:10.445Z,-0.88501
2022-12-13T09:53:12.232Z,-0.744019
2022-12-13T09:54:19.379Z,-0.683594
2022-12-13T09:55:28.061Z,-0.834656
2022-12-13T09:56:37.716Z,-0.854797
2022-12-13T09:57:46.377Z,-0.834656
2022-12-13T09:58:56.055Z,-0.774231
2022-12-13T10:00:04.727Z,-0.653381
2022-12-13T10:01:11.413Z,-0.542603
2022-12-13T10:02:22.055Z,-0.562744
2022-12-13T10:03:30.689Z,-0.623169
2022-12-13T10:04:38.375Z,-0.623169
2022-12-13T10:05:48.058Z,-0.754089
2022-12-13T10:06:57.706Z,-0.713806
2022-12-13T10:08:06.362Z,-0.613098
2022-12-13T10:09:16.030Z,-0.441895
2022-12-13T10:10:25.753Z,-0.391541
2022-12-13T10:11:35.397Z,-0.310974
2022-12-13T10:12:45.053Z,-0.321045
2022-12-13T10:13:52.701Z,-0.431824
2022-12-13T10:15:02.363Z,-0.391541
2022-12-13T10:16:10.111Z,-0.351257
2022-12-13T10:17:20.691Z,-0.280762
2022-12-13T10:18:31.352Z,-0.069275
2022-12-13T10:19:39.016Z,0.051575
2022-12-13T10:20:48.704Z,-0.250549
2022-12-13T10:22:01.791Z,-0.180054
2022-12-13T10:23:43.031Z,-0.109558
2022-12-13T10:24:28.907Z,-0.169983
2022-12-13T10:25:28.360Z,-0.169983
2022-12-13T10:26:37.108Z,-0.250549
2022-12-13T10:27:46.712Z,-0.149841
2022-12-13T10:28:55.379Z,-0.109558
2022-12-13T10:30:05.124Z,-0.210266
2022-12-13T10:31:14.729Z,-0.250549
2022-12-13T10:32:22.396Z,-0.472107
2022-12-13T10:33:33.079Z,-0.441895
2022-12-13T10:34:41.737Z,-0.230408
2022-12-13T10:35:50.389Z,-0.1297
2022-12-13T10:37:00.155Z,-0.018921
2022-12-13T10:38:09.711Z,0.011292
2022-12-13T10:39:19.418Z,-0.059204
2022-12-13T10:40:32.490Z,-0.059204
2022-12-13T10:41:36.738Z,-0.200195
2022-12-13T10:42:46.399Z,-0.522461
2022-12-13T10:43:55.057Z,-0.492249
2022-12-13T10:45:03.757Z,-0.391541
2022-12-13T10:46:13.494Z,-0.310974
2022-12-13T10:47:23.072Z,-0.341187
2022-12-13T10:48:38.152Z,-0.310974
2022-12-13T10:49:42.389Z,-0.280762
2022-12-13T10:50:50.124Z,-0.310974
2022-12-13T10:51:59.796Z,-0.180054
2022-12-13T10:53:08.458Z,-0.099487
2022-12-13T10:54:18.150Z,0.041504
2022-12-13T10:55:27.787Z,0.222778
2022-12-13T10:56:36.470Z,0.212708
2022-12-13T10:57:46.143Z,0.101929
2022-12-13T10:58:54.806Z,0.101929
2022-12-13T11:00:02.451Z,0.081787
2022-12-13T11:01:13.136Z,0.031433
2022-12-13T11:02:20.826Z,-0.230408
2022-12-13T11:03:29.615Z,-0.250549
2022-12-13T11:04:39.272Z,-0.351257
2022-12-13T11:05:46.922Z,-0.441895
2022-12-13T11:06:56.568Z,-0.592957
2022-12-13T11:08:06.243Z,-0.542603
2022-12-13T11:09:22.700Z,-0.411682
2022-12-13T11:10:27.478Z,-0.310974
2022-12-13T11:11:35.190Z,-0.200195
2022-12-13T11:12:43.843Z,-0.169983
2022-12-13T11:13:53.545Z,-0.210266
2022-12-13T11:15:01.191Z,-0.169983
2022-12-13T11:16:10.851Z,-0.018921
2022-12-13T11:17:19.502Z,0.081787
2022-12-13T11:18:28.351Z,0.112
2022-12-13T11:19:37.896Z,0.162354
2022-12-13T11:20:46.114Z,0.031433
2022-12-13T11:21:55.157Z,0.081787
2022-12-13T11:23:04.810Z,0.101929
2022-12-13T11:24:14.499Z,0.112
2022-12-13T11:25:24.151Z,0.152283
2022-12-13T11:26:32.835Z,0.222778
2022-12-13T11:27:42.466Z,0.192566
2022-12-13T11:28:51.119Z,0.081787
2022-12-13T11:29:59.813Z,0.081787
2022-12-13T11:31:09.520Z,0.12207
2022-12-13T11:32:22.344Z,0.182495
2022-12-13T11:33:25.852Z,0.222778
2022-12-13T11:34:36.525Z,0.112
2022-12-13T11:35:45.166Z,0.071716
2022-12-13T11:36:54.838Z,-0.079346
2022-12-13T11:38:04.491Z,-0.1297
2022-12-13T11:39:12.131Z,-0.028992
2022-12-13T11:40:21.805Z,0.051575
2022-12-13T11:41:31.877Z,0.192566
2022-12-13T11:42:39.221Z,0.011292
2022-12-13T11:43:48.836Z,-0.1297
2022-12-13T11:44:57.502Z,-0.1297
2022-12-13T11:46:07.186Z,-0.099487
2022-12-13T11:47:16.852Z,0.031433
2022-12-13T11:48:25.862Z,0.001221
2022-12-13T11:49:35.209Z,-0.028992
2022-12-13T11:50:44.873Z,0.051575
2022-12-13T11:51:53.536Z,0.081787
2022-12-13T11:53:03.210Z,0.081787
2022-12-13T11:54:10.893Z,-0.310974
2022-12-13T11:55:20.551Z,-0.250549
2022-12-13T11:56:29.208Z,-0.200195
2022-12-13T11:57:38.860Z,-0.139771
2022-12-13T11:59:07.052Z,-0.109558
2022-12-13T12:00:02.118Z,-0.059204
2022-12-13T12:01:08.818Z,-0.079346
2022-12-13T12:02:18.633Z,-0.028992
2022-12-13T12:03:27.274Z,-0.210266
2022-12-13T12:04:36.873Z,-0.623169
2022-12-13T12:05:46.594Z,-0.88501
2022-12-13T12:06:57.233Z,-1.197205
2022-12-13T12:08:31.499Z,-1.187134
2022-12-13T12:09:18.500Z,-1.197205
2022-12-13T12:10:27.169Z,-1.076355
2022-12-13T12:11:36.839Z,-1.086426
2022-12-13T12:12:44.494Z,-1.086426
2022-12-13T12:13:54.181Z,-1.086426
2022-12-13T12:15:05.118Z,-1.066284
2022-12-13T12:16:14.470Z,-1.046143
2022-12-13T12:17:24.130Z,-0.985718
2022-12-13T12:18:33.772Z,-0.935364
2022-12-13T12:19:42.422Z,-0.905151
2022-12-13T12:20:52.093Z,-0.804443
2022-12-13T12:22:15.673Z,-0.713806
2022-12-13T12:23:09.407Z,-0.643311
2022-12-13T12:24:18.058Z,-0.562744
2022-12-13T12:25:26.718Z,-0.572815
2022-12-13T12:26:36.385Z,-0.744019
2022-12-13T12:27:45.042Z,-0.713806
2022-12-13T12:28:53.718Z,-0.703735
2022-12-13T12:30:03.394Z,-0.653381
2022-12-13T12:31:13.033Z,-0.562744
2022-12-13T12:32:22.668Z,-0.492249
2022-12-13T12:33:31.369Z,-0.492249
2022-12-13T12:34:40.020Z,-0.431824
2022-12-13T12:35:49.688Z,-0.391541
2022-12-13T12:36:58.365Z,-0.250549
2022-12-13T12:38:08.024Z,-0.361328
2022-12-13T12:39:17.682Z,-0.391541
2022-12-13T12:40:35.695Z,-0.492249
2022-12-13T12:41:42.066Z,-0.492249
2022-12-13T12:43:13.560Z,-0.492249
2022-12-13T12:43:58.235Z,-0.613098
2022-12-13T12:45:10.448Z,-0.643311
2022-12-13T12:46:18.661Z,-0.673523
2022-12-13T12:47:46.956Z,-0.713806
2022-12-13T12:49:00.967Z,-0.925293
2022-12-13T12:49:48.522Z,-1.036072
2022-12-13T12:50:58.189Z,-1.166992
2022-12-13T12:52:06.863Z,-1.257629
2022-12-13T12:53:14.527Z,-1.287842
2022-12-13T12:54:28.901Z,-1.227417
2022-12-13T12:55:33.885Z,-1.086426
2022-12-13T12:56:42.537Z,-1.005859
2022-12-13T12:57:52.229Z,-1.166992
2022-12-13T12:59:02.910Z,-1.2677
2022-12-13T13:00:12.603Z,-1.610107
2022-12-13T13:01:22.309Z,-1.660461
2022-12-13T13:02:29.917Z,-1.579895
2022-12-13T13:03:38.640Z,-1.509399
2022-12-13T13:04:46.266Z,-1.438904
2022-12-13T13:06:01.605Z,-1.348267
2022-12-13T13:07:04.576Z,-1.378479
2022-12-13T13:08:15.206Z,-1.378479
2022-12-13T13:09:24.940Z,-1.539612
2022-12-13T13:10:33.584Z,-1.579895
2022-12-13T13:11:42.736Z,-1.479187
2022-12-13T13:12:51.992Z,-1.438904
2022-12-13T13:14:03.193Z,-1.459045
2022-12-13T13:15:11.913Z,-1.378479